Time;durP1;ratioP1;P1;durP2;ratioP2;P2;SDS_P1;SDS_P2;PMS_P1;PMS_P2;Temp;Humidity;BMP_temperature;BMP_pressure;BME280_temperature;BME280_humidity;BME280_pressure;Samples;Min_cycle;Max_cycle;Signal;HPM_P1;HPM_P2
2021/08/14 00:01:48;;;;;;;11.53;9.50;;;21.70;95.00;;;;;;6152325;23;20490;-90
2021/08/14 00:04:21;;;;;;;10.63;7.73;;;21.70;95.20;;;;;;6177179;23;20443;-86
2021/08/14 00:06:48;;;;;;;9.63;8.00;;;21.70;95.00;;;;;;6178286;23;20387;-85
2021/08/14 00:10:05;;;;;;;9.00;7.77;;;21.70;95.10;;;;;;6178123;23;20471;-86
2021/08/14 00:13:03;;;;;;;10.83;8.00;;;21.70;95.00;;;;;;6167189;23;20521;-85
2021/08/14 00:16:08;;;;;;;10.50;7.90;;;21.70;94.90;;;;;;6169912;23;20403;-86
2021/08/14 00:19:33;;;;;;;10.00;7.40;;;21.60;95.00;;;;;;6148419;23;20953;-85
2021/08/14 00:22:43;;;;;;;;;;;;;;;;;;;;;
2021/08/14 00:25:29;;;;;;;10.97;7.83;;;21.40;95.00;;;;;;6150816;23;20413;-86
2021/08/14 00:28:37;;;;;;;10.43;7.20;;;21.30;95.20;;;;;;6159808;23;20458;-85
2021/08/14 00:31:27;;;;;;;10.40;7.30;;;21.40;95.50;;;;;;6159682;23;20390;-88
2021/08/14 00:34:52;;;;;;;8.80;7.10;;;21.40;95.20;;;;;;6171700;23;20466;-85
2021/08/14 00:37:49;;;;;;;11.90;7.50;;;21.50;94.90;;;;;;6176907;23;20411;-86
2021/08/14 00:40:51;;;;;;;13.97;8.40;;;21.50;94.60;;;;;;6176770;23;20418;-87
2021/08/14 00:43:55;;;;;;;11.00;7.70;;;21.70;96.30;;;;;;6201839;23;20419;-83
2021/08/14 00:50:38;;;;;;;7.60;6.80;;;21.60;97.80;;;;;;6174370;23;20394;-86
2021/08/14 00:53:16;;;;;;;9.20;7.20;;;21.60;98.80;;;;;;6179376;23;20461;-86
2021/08/14 00:55:49;;;;;;;10.83;8.00;;;21.50;98.90;;;;;;6179121;23;20478;-85
2021/08/14 00:58:40;;;;;;;9.37;8.10;;;21.40;99.30;;;;;;6177232;23;20438;-84
2021/08/14 01:01:22;;;;;;;10.20;7.27;;;21.40;99.70;;;;;;6097193;23;20400;-86
2021/08/14 01:03:56;;;;;;;12.73;7.97;;;21.40;99.90;;;;;;6117197;23;20439;-83
2021/08/14 01:06:24;;;;;;;9.53;7.67;;;21.30;99.90;;;;;;6088399;23;20500;-86
2021/08/14 01:08:52;;;;;;;12.93;7.20;;;21.10;99.90;;;;;;6108376;23;20435;-85
2021/08/14 01:11:19;;;;;;;9.20;7.80;;;21.00;99.90;;;;;;6104671;23;20476;-84
2021/08/14 01:13:46;;;;;;;9.73;8.73;;;20.90;99.90;;;;;;6101809;23;20432;-85
2021/08/14 01:16:14;;;;;;;8.57;7.63;;;20.90;99.90;;;;;;6078765;23;20412;-85
2021/08/14 01:18:42;;;;;;;9.30;8.03;;;21.00;99.90;;;;;;6078032;23;20444;-85
2021/08/14 01:21:21;;;;;;;11.00;8.47;;;21.00;99.90;;;;;;6078664;23;20828;-84
2021/08/14 01:23:49;;;;;;;13.17;8.53;;;20.90;99.90;;;;;;6078098;23;20432;-85
2021/08/14 01:26:17;;;;;;;11.43;8.53;;;20.90;99.90;;;;;;6099280;23;20995;-83
2021/08/14 01:28:44;;;;;;;11.03;8.60;;;20.90;99.90;;;;;;6102208;23;20452;-84
2021/08/14 01:31:13;;;;;;;8.80;7.90;;;20.80;99.90;;;;;;6083504;23;20416;-85
2021/08/14 01:33:42;;;;;;;10.60;8.23;;;20.80;99.90;;;;;;6162191;23;20730;-85
2021/08/14 01:36:14;;;;;;;11.60;9.20;;;20.70;99.90;;;;;;6173246;23;20427;-82
2021/08/14 01:38:46;;;;;;;11.30;8.30;;;20.70;99.90;;;;;;6175580;23;20486;-83
2021/08/14 01:41:12;;;;;;;10.70;8.47;;;20.60;99.90;;;;;;6176453;23;20418;-81
2021/08/14 01:43:52;;;;;;;9.70;8.43;;;20.50;99.90;;;;;;6176435;23;20434;-82
2021/08/14 01:46:19;;;;;;;11.03;8.33;;;20.40;99.90;;;;;;6174550;23;20407;-82
2021/08/14 01:48:46;;;;;;;14.43;8.23;;;20.50;99.90;;;;;;6168523;23;20465;-82
2021/08/14 01:51:13;;;;;;;14.20;8.23;;;20.50;99.90;;;;;;6170789;23;20415;-83
2021/08/14 01:53:48;;;;;;;9.43;7.87;;;20.40;99.90;;;;;;6168958;23;20439;-83
2021/08/14 01:56:16;;;;;;;8.70;7.60;;;20.30;99.90;;;;;;6166830;23;20422;-82
2021/08/14 01:58:43;;;;;;;10.33;8.87;;;20.10;99.90;;;;;;6165239;23;20438;-83
2021/08/14 02:01:10;;;;;;;11.20;9.10;;;20.10;99.90;;;;;;6165732;23;20890;-84
2021/08/14 02:03:38;;;;;;;9.27;7.70;;;20.00;99.90;;;;;;6161715;23;20421;-84
2021/08/14 02:06:06;;;;;;;9.47;8.00;;;20.20;99.90;;;;;;6162848;23;20410;-83
2021/08/14 02:08:34;;;;;;;10.50;8.17;;;20.00;99.90;;;;;;6167145;23;20414;-83
2021/08/14 02:11:02;;;;;;;12.10;7.90;;;19.80;99.90;;;;;;6161545;23;20414;-84
2021/08/14 02:13:30;;;;;;;11.53;8.10;;;19.70;99.90;;;;;;6160240;23;20850;-83
2021/08/14 02:15:57;;;;;;;10.00;8.43;;;19.70;99.90;;;;;;6159978;23;20423;-82
2021/08/14 02:18:23;;;;;;;10.50;7.50;;;20.00;99.90;;;;;;6159567;23;20438;-84
2021/08/14 02:20:50;;;;;;;10.27;8.50;;;20.00;99.90;;;;;;6160465;23;20413;-84
2021/08/14 02:23:16;;;;;;;10.83;7.97;;;20.00;99.90;;;;;;6182729;23;21018;-83
2021/08/14 02:25:43;;;;;;;13.33;8.37;;;19.90;99.90;;;;;;6159478;23;20740;-84
2021/08/14 02:28:10;;;;;;;13.73;9.30;;;19.90;99.90;;;;;;6181856;23;20411;-84
2021/08/14 02:30:37;;;;;;;10.93;8.50;;;20.00;99.90;;;;;;6158223;23;20489;-83
2021/08/14 02:33:04;;;;;;;10.40;8.07;;;20.00;99.90;;;;;;6180863;23;20431;-84
2021/08/14 02:35:30;;;;;;;11.07;7.77;;;19.80;99.90;;;;;;6157617;23;20443;-82
2021/08/14 02:37:58;;;;;;;9.50;8.07;;;19.70;99.90;;;;;;6158614;23;20442;-84
2021/08/14 02:40:25;;;;;;;9.77;8.50;;;19.70;99.90;;;;;;6159684;23;20403;-82
2021/08/14 02:42:51;;;;;;;8.93;7.63;;;19.60;99.90;;;;;;6159231;23;20455;-83
2021/08/14 02:45:18;;;;;;;12.13;10.90;;;19.60;99.90;;;;;;6183851;23;20431;-80
2021/08/14 02:47:45;;;;;;;9.83;8.70;;;19.50;99.90;;;;;;6160100;23;20418;-83
2021/08/14 02:50:12;;;;;;;10.30;8.50;;;19.40;99.90;;;;;;6158977;23;20442;-82
2021/08/14 02:52:39;;;;;;;9.50;8.30;;;19.30;99.90;;;;;;6158620;23;20438;-83
2021/08/14 02:55:05;;;;;;;9.60;7.93;;;19.20;99.90;;;;;;6181326;23;20915;-83
2021/08/14 02:57:32;;;;;;;10.20;8.27;;;19.20;99.90;;;;;;6159112;23;20419;-83
2021/08/14 02:59:59;;;;;;;12.17;9.57;;;19.20;99.90;;;;;;6160359;23;20906;-83
2021/08/14 03:02:25;;;;;;;10.50;8.07;;;19.20;99.90;;;;;;6160479;23;20431;-82
2021/08/14 03:04:52;;;;;;;8.47;7.67;;;19.40;99.90;;;;;;6158650;23;20718;-83
2021/08/14 03:07:19;;;;;;;7.87;7.07;;;19.50;99.90;;;;;;6161195;23;20411;-81
2021/08/14 03:09:45;;;;;;;10.60;7.70;;;19.50;99.90;;;;;;6160954;23;20494;-83
2021/08/14 03:12:12;;;;;;;12.10;8.90;;;19.60;99.90;;;;;;6158942;23;20415;-83
2021/08/14 03:14:39;;;;;;;9.83;7.37;;;19.70;99.90;;;;;;6161125;23;20422;-85
2021/08/14 03:17:06;;;;;;;11.17;8.23;;;19.80;99.90;;;;;;6155896;23;20465;-85
2021/08/14 03:19:33;;;;;;;8.80;7.37;;;19.70;99.90;;;;;;6160346;23;20443;-83
2021/08/14 03:22:00;;;;;;;10.27;7.73;;;19.70;99.90;;;;;;6158661;23;20407;-82
2021/08/14 03:24:27;;;;;;;7.93;6.90;;;19.80;99.90;;;;;;6160784;23;20414;-82
2021/08/14 03:26:53;;;;;;;11.40;7.73;;;19.70;99.90;;;;;;6158296;23;20418;-83
2021/08/14 03:29:20;;;;;;;9.10;7.50;;;19.50;99.90;;;;;;6160156;23;20414;-84
2021/08/14 03:31:46;;;;;;;9.17;7.87;;;19.30;99.90;;;;;;6159239;23;20415;-83
2021/08/14 03:34:13;;;;;;;8.07;6.70;;;19.30;99.90;;;;;;6182006;23;20449;-84
2021/08/14 03:36:40;;;;;;;10.80;7.87;;;19.30;99.90;;;;;;6160498;23;20406;-82
2021/08/14 03:39:06;;;;;;;9.17;7.40;;;19.20;99.90;;;;;;6163246;23;20833;-83
2021/08/14 03:41:34;;;;;;;10.50;8.00;;;19.10;99.90;;;;;;6157689;23;20434;-84
2021/08/14 03:44:03;;;;;;;10.13;7.60;;;19.00;99.90;;;;;;6182776;23;20437;-83
2021/08/14 03:46:30;;;;;;;8.43;7.53;;;19.00;99.90;;;;;;6158187;23;20403;-82
2021/08/14 03:48:56;;;;;;;9.40;7.77;;;18.90;99.90;;;;;;6159584;23;20429;-83
2021/08/14 03:51:23;;;;;;;10.67;7.20;;;19.00;99.90;;;;;;6160832;23;20758;-83
2021/08/14 03:53:50;;;;;;;11.57;8.13;;;19.10;99.90;;;;;;6183647;23;20430;-82
2021/08/14 03:56:17;;;;;;;9.13;7.20;;;19.10;99.90;;;;;;6167608;23;20426;-83
2021/08/14 03:58:44;;;;;;;11.70;7.87;;;19.10;99.90;;;;;;6160158;23;20438;-83
2021/08/14 04:01:10;;;;;;;8.10;7.00;;;18.90;99.90;;;;;;6163825;23;20871;-82
2021/08/14 04:03:37;;;;;;;8.40;7.30;;;18.80;99.90;;;;;;6167154;23;20434;-82
2021/08/14 04:06:04;;;;;;;9.40;7.97;;;18.70;99.90;;;;;;6164575;23;20399;-83
2021/08/14 04:08:30;;;;;;;11.07;7.80;;;18.60;99.90;;;;;;6181720;23;20425;-81
2021/08/14 04:10:57;;;;;;;9.70;7.30;;;18.70;99.90;;;;;;6158940;23;20442;-81
2021/08/14 04:13:24;;;;;;;9.47;8.03;;;18.70;99.90;;;;;;6158405;23;20743;-84
2021/08/14 04:15:51;;;;;;;11.20;7.40;;;18.60;99.90;;;;;;6159474;23;20411;-82
2021/08/14 04:18:18;;;;;;;7.73;6.37;;;18.70;99.90;;;;;;6160240;23;20821;-82
2021/08/14 04:20:44;;;;;;;10.13;7.10;;;18.80;99.90;;;;;;6160739;23;20409;-84
2021/08/14 04:23:11;;;;;;;9.60;8.10;;;18.80;99.90;;;;;;6159929;23;20432;-83
2021/08/14 04:25:38;;;;;;;11.00;7.30;;;18.80;99.90;;;;;;6159212;23;21033;-84
2021/08/14 04:28:04;;;;;;;8.27;6.50;;;18.80;99.90;;;;;;6161106;23;20414;-84
2021/08/14 04:30:31;;;;;;;11.17;7.90;;;18.70;99.90;;;;;;6159146;23;20410;-84
2021/08/14 04:32:57;;;;;;;9.27;7.60;;;18.70;99.90;;;;;;6160044;23;20442;-83
2021/08/14 04:35:24;;;;;;;8.07;6.60;;;18.80;99.90;;;;;;6159128;23;20414;-83
2021/08/14 04:37:51;;;;;;;8.00;7.20;;;18.80;99.90;;;;;;6160408;23;20415;-83
2021/08/14 04:40:18;;;;;;;9.00;7.70;;;18.70;99.90;;;;;;6183816;23;20413;-82
2021/08/14 04:42:45;;;;;;;9.20;8.30;;;18.70;99.90;;;;;;6160378;23;20431;-82
2021/08/14 04:45:13;;;;;;;8.70;7.10;;;18.70;99.90;;;;;;6161719;23;20407;-81
2021/08/14 04:47:39;;;;;;;9.27;7.70;;;18.60;99.90;;;;;;6175120;23;20417;-82
2021/08/14 04:50:08;;;;;;;14.50;8.63;;;18.60;99.90;;;;;;6197300;23;20416;-82
2021/08/14 04:52:35;;;;;;;9.33;7.40;;;18.80;99.90;;;;;;6169662;23;20421;-83
2021/08/14 04:55:02;;;;;;;8.30;7.30;;;18.80;99.90;;;;;;6164188;23;20418;-83
2021/08/14 04:57:29;;;;;;;9.40;7.07;;;18.80;99.90;;;;;;6164203;23;20494;-83
2021/08/14 04:59:56;;;;;;;7.87;7.17;;;18.60;99.90;;;;;;6169269;23;20449;-81
2021/08/14 05:02:22;;;;;;;9.13;7.73;;;18.70;99.90;;;;;;6173016;23;20441;-81
2021/08/14 05:04:49;;;;;;;9.80;7.17;;;18.90;99.90;;;;;;6191342;23;20413;-84
2021/08/14 05:07:16;;;;;;;10.67;8.13;;;18.90;99.90;;;;;;6165857;23;20416;-84
2021/08/14 05:09:43;;;;;;;9.97;7.70;;;19.00;99.90;;;;;;6162015;23;20434;-84
2021/08/14 05:12:13;;;;;;;8.60;7.00;;;18.90;99.90;;;;;;6182201;23;20455;-84
2021/08/14 05:14:40;;;;;;;9.23;7.50;;;18.80;99.90;;;;;;6162203;23;20415;-84
2021/08/14 05:17:07;;;;;;;10.63;7.40;;;18.90;99.90;;;;;;6184054;23;20438;-84
2021/08/14 05:19:38;;;;;;;9.63;7.90;;;18.80;99.90;;;;;;6162869;23;20530;-84
2021/08/14 05:22:05;;;;;;;8.63;7.63;;;18.80;99.90;;;;;;6136733;23;20403;-83
2021/08/14 05:24:31;;;;;;;10.47;7.93;;;18.90;99.90;;;;;;6160724;23;20465;-84
2021/08/14 05:26:58;;;;;;;8.80;7.93;;;19.00;99.90;;;;;;6160126;23;20482;-84
2021/08/14 05:29:25;;;;;;;13.03;7.80;;;19.10;99.90;;;;;;6161492;23;20421;-84
2021/08/14 05:31:52;;;;;;;8.67;7.07;;;19.10;99.90;;;;;;6160963;23;20814;-82
2021/08/14 05:34:18;;;;;;;9.60;7.60;;;19.20;99.90;;;;;;6160494;23;20431;-84
2021/08/14 05:36:45;;;;;;;10.43;9.33;;;19.10;99.90;;;;;;6160818;23;20434;-83
2021/08/14 05:39:12;;;;;;;8.67;7.60;;;19.10;99.90;;;;;;6160931;23;20443;-84
2021/08/14 05:41:42;;;;;;;9.43;8.07;;;19.10;99.90;;;;;;6159575;23;21283;-85
2021/08/14 05:44:09;;;;;;;8.87;7.90;;;19.40;99.90;;;;;;6159571;23;20437;-83
2021/08/14 05:46:35;;;;;;;9.90;6.70;;;19.50;99.90;;;;;;6159315;23;20403;-83
2021/08/14 05:49:02;;;;;;;8.93;8.03;;;19.60;99.90;;;;;;6160131;23;20487;-82
2021/08/14 05:51:29;;;;;;;9.63;7.80;;;19.50;99.90;;;;;;6166456;23;20524;-83
2021/08/14 05:54:12;;;;;;;9.63;8.63;;;19.50;99.90;;;;;;6179070;23;20577;-84
2021/08/14 05:56:40;;;;;;;13.77;8.43;;;19.60;99.90;;;;;;6160082;23;20421;-83
2021/08/14 05:59:07;;;;;;;10.10;7.90;;;19.80;99.90;;;;;;6160387;23;20450;-84
2021/08/14 06:01:33;;;;;;;10.03;7.50;;;19.90;99.90;;;;;;6159834;23;20407;-84
2021/08/14 06:04:00;;;;;;;10.77;8.83;;;20.00;99.90;;;;;;6160219;23;20502;-84
2021/08/14 06:06:27;;;;;;;11.20;8.37;;;19.90;99.90;;;;;;6160281;23;20843;-84
2021/08/14 06:08:53;;;;;;;9.63;8.57;;;19.80;99.90;;;;;;6160945;23;20487;-83
2021/08/14 06:11:20;;;;;;;10.57;8.40;;;19.80;99.90;;;;;;6160537;23;20469;-83
2021/08/14 06:13:47;;;;;;;8.53;7.63;;;19.80;99.90;;;;;;6160258;23;20439;-84
2021/08/14 06:16:15;;;;;;;10.90;7.87;;;20.00;99.90;;;;;;6168648;23;20402;-83
2021/08/14 06:18:43;;;;;;;10.80;8.00;;;20.10;99.90;;;;;;6174502;23;20458;-83
2021/08/14 06:21:10;;;;;;;11.27;7.63;;;20.30;99.90;;;;;;6201043;23;20470;-79
2021/08/14 06:23:37;;;;;;;10.63;6.97;;;21.60;99.90;;;;;;6178060;23;20514;-83
2021/08/14 06:26:04;;;;;;;9.53;7.20;;;24.30;97.40;;;;;;6196490;23;20421;-84
2021/08/14 06:28:31;;;;;;;11.20;8.20;;;27.10;91.90;;;;;;6168046;23;20898;-84
2021/08/14 06:30:59;;;;;;;8.17;6.67;;;29.40;83.30;;;;;;6187764;23;20403;-81
2021/08/14 06:33:26;;;;;;;9.73;6.50;;;31.10;74.50;;;;;;6162258;23;20422;-84
2021/08/14 06:35:52;;;;;;;8.33;6.90;;;31.90;67.70;;;;;;6162824;23;20407;-83
2021/08/14 06:38:20;;;;;;;9.67;7.17;;;32.70;61.70;;;;;;6161869;23;20513;-84
2021/08/14 06:40:47;;;;;;;7.67;6.53;;;32.80;59.50;;;;;;6187582;23;20429;-84
2021/08/14 06:43:14;;;;;;;7.67;6.87;;;31.70;59.80;;;;;;6162340;23;20518;-83
2021/08/14 06:45:41;;;;;;;12.30;6.50;;;28.80;63.30;;;;;;6163449;23;20418;-84
2021/08/14 06:48:07;;;;;;;14.73;7.40;;;26.60;71.60;;;;;;6164186;23;20453;-84
2021/08/14 06:50:34;;;;;;;8.87;6.67;;;25.10;79.40;;;;;;6190396;23;20404;-84
2021/08/14 06:53:01;;;;;;;7.87;7.07;;;24.20;85.80;;;;;;6165601;23;20437;-82
2021/08/14 06:55:27;;;;;;;8.40;7.10;;;23.10;90.50;;;;;;6195229;23;20918;-84
2021/08/14 06:57:54;;;;;;;8.23;6.27;;;22.90;92.70;;;;;;6174145;23;20396;-83
2021/08/14 07:00:22;;;;;;;8.40;6.60;;;22.50;93.10;;;;;;6175119;23;20439;-84
2021/08/14 07:02:48;;;;;;;10.27;7.13;;;22.40;94.50;;;;;;6171448;23;20507;-82
2021/08/14 07:05:16;;;;;;;13.57;9.70;;;22.10;95.00;;;;;;6164043;23;20418;-84
2021/08/14 07:07:43;;;;;;;8.20;5.60;;;22.00;95.20;;;;;;6164130;23;20442;-83
2021/08/14 07:10:10;;;;;;;7.73;5.90;;;21.90;95.20;;;;;;6144539;23;20395;-82
2021/08/14 07:12:37;;;;;;;7.00;5.30;;;21.80;94.50;;;;;;6172554;23;20446;-84
2021/08/14 07:15:06;;;;;;;5.60;5.00;;;22.00;94.40;;;;;;6172311;23;20411;-82
2021/08/14 07:17:33;;;;;;;6.57;5.03;;;22.20;93.10;;;;;;6170747;23;20417;-83
2021/08/14 07:20:00;;;;;;;8.40;5.67;;;22.70;92.40;;;;;;6170863;23;20442;-83
2021/08/14 07:22:26;;;;;;;5.70;5.07;;;23.50;91.40;;;;;;6168786;23;20430;-85
2021/08/14 07:24:53;;;;;;;6.90;4.00;;;24.20;90.10;;;;;;6161676;23;20407;-84
2021/08/14 07:27:20;;;;;;;6.30;4.37;;;25.70;84.70;;;;;;6159019;23;20763;-83
2021/08/14 07:29:46;;;;;;;6.80;4.40;;;28.10;75.10;;;;;;6160406;23;20415;-82
2021/08/14 07:32:13;;;;;;;5.67;3.73;;;30.80;63.50;;;;;;6161156;23;20413;-83
2021/08/14 07:34:40;;;;;;;9.63;4.70;;;31.80;56.10;;;;;;6185478;23;20411;-85
2021/08/14 07:37:07;;;;;;;6.07;3.67;;;32.90;53.00;;;;;;6159730;23;20446;-85
2021/08/14 07:39:34;;;;;;;4.13;3.60;;;33.30;50.50;;;;;;6182416;23;20853;-84
2021/08/14 07:42:01;;;;;;;6.90;4.00;;;34.30;49.70;;;;;;6161937;23;20484;-85
2021/08/14 07:44:27;;;;;;;6.60;3.80;;;35.30;46.80;;;;;;6161383;23;20852;-83
2021/08/14 07:47:12;;;;;;;7.27;4.07;;;36.10;45.40;;;;;;6161530;23;20418;-83
2021/08/14 07:49:39;;;;;;;4.73;3.77;;;36.70;42.60;;;;;;6161642;23;20420;-83
2021/08/14 07:52:08;;;;;;;5.87;3.80;;;35.50;42.50;;;;;;6179434;23;20894;-84
2021/08/14 07:54:35;;;;;;;6.87;5.00;;;35.10;43.50;;;;;;6193343;23;20436;-83
2021/08/14 07:57:02;;;;;;;5.10;4.57;;;34.70;44.00;;;;;;6164252;23;20404;-83
2021/08/14 07:59:29;;;;;;;6.03;3.67;;;34.70;43.70;;;;;;6161281;23;20433;-84
2021/08/14 08:01:56;;;;;;;6.17;3.90;;;35.60;43.20;;;;;;6161409;23;20406;-83
2021/08/14 08:04:23;;;;;;;5.30;4.27;;;36.90;40.00;;;;;;6188137;23;20487;-83
2021/08/14 08:06:49;;;;;;;7.50;4.00;;;37.50;39.60;;;;;;6164381;23;20413;-84
2021/08/14 08:09:16;;;;;;;6.33;4.50;;;38.00;38.70;;;;;;6189305;23;20452;-83
2021/08/14 08:11:43;;;;;;;4.20;3.70;;;38.20;37.20;;;;;;6168740;23;20434;-83
2021/08/14 08:14:10;;;;;;;5.77;4.20;;;36.60;39.10;;;;;;6175389;23;20431;-82
2021/08/14 08:16:37;;;;;;;8.30;3.80;;;36.40;39.70;;;;;;6174258;23;20421;-84
2021/08/14 08:19:03;;;;;;;5.77;4.50;;;37.50;38.20;;;;;;6175119;23;20403;-84
2021/08/14 08:21:30;;;;;;;4.73;3.73;;;37.60;37.00;;;;;;6165198;23;20402;-85
2021/08/14 08:23:57;;;;;;;6.63;3.20;;;38.30;35.40;;;;;;6163304;23;20486;-85
2021/08/14 08:26:24;;;;;;;5.43;3.90;;;38.30;35.10;;;;;;6160445;23;20430;-84
2021/08/14 08:28:53;;;;;;;4.13;3.70;;;38.00;35.70;;;;;;6185254;23;20414;-84
2021/08/14 08:31:20;;;;;;;5.90;3.93;;;37.00;36.30;;;;;;6161773;23;20403;-83
2021/08/14 08:33:50;;;;;;;4.53;3.80;;;36.10;38.20;;;;;;6164483;23;20446;-84
2021/08/14 08:36:16;;;;;;;7.87;4.27;;;37.50;36.60;;;;;;6171326;23;20486;-85
2021/08/14 08:38:43;;;;;;;5.73;3.80;;;36.70;37.30;;;;;;6194712;23;20421;-84
2021/08/14 08:41:10;;;;;;;4.80;3.40;;;36.30;37.20;;;;;;6162971;23;20440;-85
2021/08/14 08:43:40;;;;;;;6.23;3.00;;;36.20;36.30;;;;;;6187454;23;20482;-85
2021/08/14 08:46:10;;;;;;;8.87;2.60;;;36.90;34.00;;;;;;6162029;23;20720;-85
2021/08/14 08:48:42;;;;;;;5.53;2.80;;;36.60;33.60;;;;;;6164264;23;20402;-84
2021/08/14 08:51:10;;;;;;;4.47;2.97;;;36.70;33.40;;;;;;6164667;23;20501;-84
2021/08/14 08:53:38;;;;;;;3.77;2.80;;;36.10;33.70;;;;;;6164007;23;20434;-82
2021/08/14 08:56:05;;;;;;;4.80;3.60;;;37.80;31.80;;;;;;6172593;23;20398;-84
2021/08/14 08:58:35;;;;;;;10.20;3.30;;;37.80;30.80;;;;;;6176919;23;20402;-85
2021/08/14 09:01:03;;;;;;;4.07;3.13;;;36.10;32.80;;;;;;6176543;23;20414;-85
2021/08/14 09:03:30;;;;;;;4.83;3.50;;;36.50;33.00;;;;;;6165282;23;20489;-82
2021/08/14 09:05:58;;;;;;;4.57;2.80;;;37.70;31.30;;;;;;6141251;23;20747;-84
2021/08/14 09:08:24;;;;;;;3.87;2.60;;;37.40;31.20;;;;;;6165616;23;20406;-84
2021/08/14 09:11:07;;;;;;;7.40;3.17;;;37.20;31.90;;;;;;6167274;23;20442;-84
2021/08/14 09:13:34;;;;;;;6.00;3.40;;;37.60;31.40;;;;;;6166426;23;20426;-84
2021/08/14 09:16:22;;;;;;;4.20;3.20;;;37.50;32.40;;;;;;6167796;23;20410;-84
2021/08/14 09:19:22;;;;;;;6.07;2.70;;;37.30;31.80;;;;;;6166457;23;20395;-85
2021/08/14 09:21:49;;;;;;;4.83;4.00;;;36.80;32.40;;;;;;6168002;23;20403;-85
2021/08/14 09:24:37;;;;;;;4.23;3.30;;;37.00;32.30;;;;;;6173902;23;20413;-84
2021/08/14 09:27:05;;;;;;;4.63;2.80;;;36.40;32.80;;;;;;6181296;23;20375;-84
2021/08/14 09:29:35;;;;;;;6.00;2.97;;;35.90;33.30;;;;;;6178867;23;20430;-84
2021/08/14 09:32:05;;;;;;;4.33;2.83;;;36.30;33.00;;;;;;6180660;23;20455;-82
2021/08/14 09:34:32;;;;;;;4.70;3.10;;;36.50;32.50;;;;;;6180534;23;20175;-84
2021/08/14 09:37:08;;;;;;;3.70;2.70;;;35.80;32.60;;;;;;6179210;23;20681;-85
2021/08/14 09:40:00;;;;;;;5.83;2.80;;;35.50;33.60;;;;;;6180607;23;20421;-83
2021/08/14 09:42:28;;;;;;;4.17;2.67;;;35.50;33.30;;;;;;6179460;23;20442;-83
2021/08/14 09:45:16;;;;;;;5.37;2.90;;;35.30;33.90;;;;;;6180061;23;20398;-83
2021/08/14 09:47:46;;;;;;;6.70;3.30;;;36.20;33.10;;;;;;6190010;23;20407;-84
2021/08/14 09:50:13;;;;;;;3.50;2.80;;;35.20;33.80;;;;;;6160707;23;20469;-84
2021/08/14 09:52:46;;;;;;;5.17;3.40;;;34.60;34.80;;;;;;6162758;23;20937;-83
2021/08/14 09:56:11;;;;;;;6.07;2.70;;;34.00;35.40;;;;;;6173129;23;20429;-84
2021/08/14 09:58:55;;;;;;;6.60;3.90;;;34.30;35.90;;;;;;6164166;23;21047;-85
2021/08/14 10:01:42;;;;;;;6.80;3.30;;;35.60;34.60;;;;;;6159787;23;20466;-85
2021/08/14 10:04:26;;;;;;;4.10;2.90;;;35.70;33.10;;;;;;6161490;23;20434;-85
2021/08/14 10:06:58;;;;;;;7.80;3.43;;;35.00;32.70;;;;;;6164252;23;20437;-85
2021/08/14 10:09:35;;;;;;;3.53;2.90;;;34.30;33.90;;;;;;6164328;23;20406;-80
2021/08/14 10:12:22;;;;;;;10.03;3.10;;;34.90;33.80;;;;;;6157334;23;20409;-84
2021/08/14 10:15:35;;;;;;;10.20;3.50;;;35.70;33.50;;;;;;6151615;23;20408;-85
2021/08/14 10:18:06;;;;;;;6.60;3.10;;;35.90;32.80;;;;;;6161319;23;20422;-84
2021/08/14 10:20:36;;;;;;;5.40;3.00;;;35.40;33.50;;;;;;6162509;23;20239;-82
2021/08/14 10:23:35;;;;;;;4.90;2.90;;;36.60;31.90;;;;;;6141000;23;20355;-85
2021/08/14 10:26:19;;;;;;;5.20;2.67;;;35.80;31.90;;;;;;6158905;23;20445;-84
2021/08/14 10:29:01;;;;;;;5.13;3.10;;;34.90;33.30;;;;;;6163573;23;20402;-85
2021/08/14 10:31:46;;;;;;;5.20;2.87;;;34.30;35.00;;;;;;6162127;23;20487;-85
2021/08/14 10:34:16;;;;;;;4.73;2.87;;;34.40;35.20;;;;;;6165169;23;20411;-84
2021/08/14 10:36:46;;;;;;;3.80;3.40;;;35.00;34.30;;;;;;6165853;23;20404;-84
2021/08/14 10:39:53;;;;;;;4.87;3.07;;;34.60;34.80;;;;;;6163779;23;20453;-84
2021/08/14 10:42:56;;;;;;;4.87;3.80;;;34.00;35.70;;;;;;6180334;23;20406;-85
2021/08/14 10:45:34;;;;;;;5.17;3.20;;;34.00;36.30;;;;;;6177367;23;20386;-83
2021/08/14 10:48:04;;;;;;;5.23;3.13;;;33.80;35.70;;;;;;6179003;23;20398;-84
2021/08/14 10:50:31;;;;;;;3.70;3.33;;;33.80;36.00;;;;;;6177234;23;20426;-85
2021/08/14 10:53:14;;;;;;;11.23;10.17;;;34.40;35.30;;;;;;6155813;23;20436;-84
2021/08/14 10:55:55;;;;;;;4.80;3.10;;;33.60;36.10;;;;;;6161487;23;20423;-81
2021/08/14 10:58:43;;;;;;;5.17;3.50;;;34.00;35.50;;;;;;6185113;23;20398;-84
2021/08/14 11:01:45;;;;;;;3.63;3.23;;;33.80;36.50;;;;;;6157785;23;20417;-84
2021/08/14 11:04:36;;;;;;;6.10;3.87;;;33.80;36.70;;;;;;6181885;23;20437;-85
2021/08/14 11:07:48;;;;;;;3.50;2.50;;;33.50;37.20;;;;;;6174704;23;20417;-83
2021/08/14 11:10:35;;;;;;;5.57;3.57;;;32.90;38.10;;;;;;6178867;23;20418;-84
2021/08/14 11:13:34;;;;;;;5.33;3.23;;;32.90;38.70;;;;;;6176149;23;20516;-85
2021/08/14 11:16:09;;;;;;;4.87;3.70;;;33.30;38.10;;;;;;6162589;23;20469;-82
2021/08/14 11:19:40;;;;;;;4.53;3.33;;;33.20;38.40;;;;;;6161840;23;20391;-85
2021/08/14 11:22:42;;;;;;;5.80;3.60;;;33.00;38.00;;;;;;6147563;23;20395;-86
2021/08/14 11:25:31;;;;;;;5.03;3.70;;;33.10;38.10;;;;;;6160563;23;20406;-84
2021/08/14 11:28:00;;;;;;;4.10;3.10;;;33.10;37.90;;;;;;6158887;23;20407;-85
2021/08/14 11:30:42;;;;;;;4.80;3.10;;;33.00;37.40;;;;;;6159941;23;20478;-84
2021/08/14 11:33:11;;;;;;;7.47;3.40;;;32.60;37.70;;;;;;6157881;23;20418;-84
2021/08/14 11:35:40;;;;;;;8.03;3.70;;;32.40;38.40;;;;;;6158595;23;20415;-84
2021/08/14 11:38:09;;;;;;;9.50;3.60;;;32.10;38.50;;;;;;6159401;23;20411;-84
2021/08/14 11:40:39;;;;;;;5.33;3.00;;;31.70;38.50;;;;;;6160223;23;20458;-85
2021/08/14 11:43:13;;;;;;;4.23;3.20;;;31.60;39.40;;;;;;6162196;23;20439;-85
2021/08/14 11:45:44;;;;;;;5.13;3.47;;;31.70;38.80;;;;;;6163503;23;20415;-85
2021/08/14 11:48:16;;;;;;;3.90;2.87;;;31.50;37.70;;;;;;6161397;23;20693;-86
2021/08/14 11:50:45;;;;;;;5.73;3.10;;;31.40;38.30;;;;;;6160787;23;20443;-85
2021/08/14 11:53:22;;;;;;;4.10;3.67;;;30.90;38.50;;;;;;6159858;23;20926;-84
2021/08/14 11:56:06;;;;;;;5.27;3.40;;;30.60;39.30;;;;;;6159505;23;20921;-83
2021/08/14 11:58:32;;;;;;;6.73;3.10;;;30.20;40.00;;;;;;6163672;23;20462;-83
2021/08/14 12:00:59;;;;;;;5.60;3.83;;;30.30;39.40;;;;;;6162683;23;20411;-84
2021/08/14 12:03:27;;;;;;;5.80;3.73;;;30.50;39.60;;;;;;6184639;23;20427;-84
2021/08/14 12:06:11;;;;;;;4.83;3.70;;;30.90;39.20;;;;;;6162167;23;21042;-86
2021/08/14 12:08:40;;;;;;;5.23;3.10;;;31.70;38.20;;;;;;6161864;23;20867;-84
2021/08/14 12:11:10;;;;;;;6.30;3.83;;;31.70;38.10;;;;;;6160979;23;20502;-86
2021/08/14 12:13:38;;;;;;;6.10;3.93;;;31.60;38.10;;;;;;6161288;23;20502;-85
2021/08/14 12:16:16;;;;;;;3.70;3.23;;;31.50;38.30;;;;;;6159812;23;20478;-85
2021/08/14 12:18:46;;;;;;;4.70;3.10;;;31.50;37.90;;;;;;6160698;23;20407;-84
2021/08/14 12:21:15;;;;;;;7.57;4.00;;;31.50;38.10;;;;;;6162844;23;20423;-83
2021/08/14 12:23:45;;;;;;;5.37;3.40;;;31.80;37.50;;;;;;6160631;23;20506;-86
2021/08/14 12:26:26;;;;;;;5.33;2.90;;;31.90;37.10;;;;;;6163530;23;20425;-83
2021/08/14 12:29:02;;;;;;;3.90;3.30;;;31.80;37.10;;;;;;6159922;23;20387;-84
2021/08/14 12:31:29;;;;;;;3.93;3.30;;;31.90;36.80;;;;;;6161945;23;20546;-84
2021/08/14 12:33:59;;;;;;;4.70;3.10;;;32.00;36.90;;;;;;6161516;23;20462;-84
2021/08/14 12:36:33;;;;;;;4.20;3.00;;;31.90;36.90;;;;;;6159787;23;20481;-84
2021/08/14 12:39:00;;;;;;;5.20;2.90;;;31.70;36.50;;;;;;6173715;23;20395;-83
2021/08/14 12:41:35;;;;;;;5.13;3.20;;;31.60;36.90;;;;;;6174904;23;20418;-85
2021/08/14 12:44:03;;;;;;;6.50;4.03;;;31.40;37.00;;;;;;6175000;23;20422;-85
2021/08/14 12:46:30;;;;;;;4.43;3.27;;;31.40;37.30;;;;;;6168419;23;20407;-86
2021/08/14 12:49:23;;;;;;;4.87;2.93;;;31.60;36.70;;;;;;6166670;23;20410;-86
2021/08/14 12:52:07;;;;;;;5.03;3.63;;;32.00;35.90;;;;;;6188619;23;20510;-85
2021/08/14 12:54:37;;;;;;;3.87;3.17;;;31.80;36.20;;;;;;6164195;23;20438;-86
2021/08/14 12:57:08;;;;;;;4.53;3.20;;;31.70;36.40;;;;;;6161470;23;20425;-85
2021/08/14 12:59:37;;;;;;;4.60;3.17;;;31.50;36.60;;;;;;6166184;23;20906;-85
2021/08/14 13:02:06;;;;;;;6.20;3.40;;;31.20;37.50;;;;;;6164358;23;20478;-85
2021/08/14 13:04:34;;;;;;;2.73;2.33;;;31.10;37.70;;;;;;6171089;23;20434;-84
2021/08/14 13:07:03;;;;;;;5.40;2.90;;;31.00;37.50;;;;;;6181782;23;20770;-84
2021/08/14 13:09:31;;;;;;;4.83;3.00;;;31.30;37.50;;;;;;6180909;23;20391;-84
2021/08/14 13:12:00;;;;;;;5.10;2.97;;;31.40;37.30;;;;;;6174924;23;20454;-85
2021/08/14 13:14:27;;;;;;;3.87;3.23;;;31.40;38.00;;;;;;6164478;23;20959;-85
2021/08/14 13:16:55;;;;;;;3.97;2.90;;;31.50;38.10;;;;;;6184704;23;20415;-84